sensor_id;sensor_type;location;lat;lon;timestamp;P1;durP1;ratioP1;P2;durP2;ratioP2
81841;SDS011;71284;50.918;7.092;2023-12-04T00:00:29;11.65;;;7.05;;
81841;SDS011;71284;50.918;7.092;2023-12-04T00:02:56;14.68;;;6.93;;
81841;SDS011;71284;50.918;7.092;2023-12-04T00:05:22;13.93;;;8.25;;
81841;SDS011;71284;50.918;7.092;2023-12-04T00:07:49;15.57;;;7.30;;
81841;SDS011;71284;50.918;7.092;2023-12-04T00:10:15;46.90;;;7.25;;
81841;SDS011;71284;50.918;7.092;2023-12-04T00:12:42;12.25;;;7.82;;
81841;SDS011;71284;50.918;7.092;2023-12-04T00:15:09;14.27;;;7.35;;
81841;SDS011;71284;50.918;7.092;2023-12-04T00:17:36;12.80;;;8.00;;
81841;SDS011;71284;50.918;7.092;2023-12-04T00:20:02;13.25;;;7.80;;
81841;SDS011;71284;50.918;7.092;2023-12-04T00:22:29;9.20;;;5.90;;
81841;SDS011;71284;50.918;7.092;2023-12-04T00:24:55;15.45;;;8.25;;
81841;SDS011;71284;50.918;7.092;2023-12-04T00:27:22;11.98;;;6.85;;
81841;SDS011;71284;50.918;7.092;2023-12-04T00:29:49;9.43;;;7.20;;
81841;SDS011;71284;50.918;7.092;2023-12-04T00:32:15;11.90;;;6.43;;
81841;SDS011;71284;50.918;7.092;2023-12-04T00:34:42;17.62;;;7.50;;
81841;SDS011;71284;50.918;7.092;2023-12-04T00:37:08;11.35;;;7.30;;
81841;SDS011;71284;50.918;7.092;2023-12-04T00:39:35;16.60;;;9.15;;
81841;SDS011;71284;50.918;7.092;2023-12-04T00:42:02;14.15;;;7.55;;
81841;SDS011;71284;50.918;7.092;2023-12-04T00:44:28;12.85;;;7.32;;
81841;SDS011;71284;50.918;7.092;2023-12-04T00:46:55;16.50;;;7.37;;
81841;SDS011;71284;50.918;7.092;2023-12-04T00:49:21;11.00;;;6.95;;
81841;SDS011;71284;50.918;7.092;2023-12-04T00:51:48;12.25;;;7.22;;
81841;SDS011;71284;50.918;7.092;2023-12-04T00:54:15;12.50;;;7.20;;
81841;SDS011;71284;50.918;7.092;2023-12-04T00:56:41;9.38;;;6.55;;
81841;SDS011;71284;50.918;7.092;2023-12-04T00:59:08;14.87;;;7.60;;
81841;SDS011;71284;50.918;7.092;2023-12-04T01:01:36;11.23;;;6.97;;
81841;SDS011;71284;50.918;7.092;2023-12-04T01:04:02;14.10;;;7.55;;
81841;SDS011;71284;50.918;7.092;2023-12-04T01:06:28;10.32;;;5.55;;
81841;SDS011;71284;50.918;7.092;2023-12-04T01:08:55;13.68;;;8.00;;
81841;SDS011;71284;50.918;7.092;2023-12-04T01:11:22;12.43;;;6.25;;
81841;SDS011;71284;50.918;7.092;2023-12-04T01:13:48;12.20;;;7.50;;
81841;SDS011;71284;50.918;7.092;2023-12-04T01:16:15;12.82;;;6.40;;
81841;SDS011;71284;50.918;7.092;2023-12-04T01:18:41;7.72;;;6.18;;
81841;SDS011;71284;50.918;7.092;2023-12-04T01:21:08;10.65;;;7.07;;
81841;SDS011;71284;50.918;7.092;2023-12-04T01:23:35;10.50;;;7.37;;
81841;SDS011;71284;50.918;7.092;2023-12-04T01:26:01;9.85;;;7.12;;
81841;SDS011;71284;50.918;7.092;2023-12-04T01:28:28;10.27;;;6.60;;
81841;SDS011;71284;50.918;7.092;2023-12-04T01:30:54;12.25;;;6.65;;
81841;SDS011;71284;50.918;7.092;2023-12-04T01:33:21;11.12;;;6.25;;
81841;SDS011;71284;50.918;7.092;2023-12-04T01:35:47;10.90;;;6.15;;
81841;SDS011;71284;50.918;7.092;2023-12-04T01:38:14;11.85;;;6.72;;
81841;SDS011;71284;50.918;7.092;2023-12-04T01:40:41;12.20;;;6.50;;
81841;SDS011;71284;50.918;7.092;2023-12-04T01:43:07;10.43;;;6.40;;
81841;SDS011;71284;50.918;7.092;2023-12-04T01:45:34;10.05;;;7.20;;
81841;SDS011;71284;50.918;7.092;2023-12-04T01:48:00;8.00;;;5.78;;
81841;SDS011;71284;50.918;7.092;2023-12-04T01:50:27;8.90;;;6.18;;
81841;SDS011;71284;50.918;7.092;2023-12-04T01:52:53;11.70;;;6.47;;
81841;SDS011;71284;50.918;7.092;2023-12-04T01:55:20;13.73;;;6.40;;
81841;SDS011;71284;50.918;7.092;2023-12-04T01:57:47;7.43;;;5.20;;
81841;SDS011;71284;50.918;7.092;2023-12-04T02:00:13;6.82;;;5.62;;
81841;SDS011;71284;50.918;7.092;2023-12-04T02:02:40;13.80;;;7.03;;
81841;SDS011;71284;50.918;7.092;2023-12-04T02:05:07;9.07;;;4.78;;
81841;SDS011;71284;50.918;7.092;2023-12-04T02:07:34;11.43;;;6.93;;
81841;SDS011;71284;50.918;7.092;2023-12-04T02:10:01;12.37;;;7.85;;
81841;SDS011;71284;50.918;7.092;2023-12-04T02:12:28;8.40;;;5.57;;
81841;SDS011;71284;50.918;7.092;2023-12-04T02:14:54;8.30;;;5.50;;
81841;SDS011;71284;50.918;7.092;2023-12-04T02:17:21;7.40;;;5.75;;
81841;SDS011;71284;50.918;7.092;2023-12-04T02:19:48;9.48;;;5.50;;
81841;SDS011;71284;50.918;7.092;2023-12-04T02:22:14;10.35;;;6.43;;
81841;SDS011;71284;50.918;7.092;2023-12-04T02:24:41;8.88;;;5.32;;
81841;SDS011;71284;50.918;7.092;2023-12-04T02:27:10;10.13;;;5.90;;
81841;SDS011;71284;50.918;7.092;2023-12-04T02:29:39;7.95;;;5.80;;
81841;SDS011;71284;50.918;7.092;2023-12-04T02:32:03;8.07;;;6.32;;
81841;SDS011;71284;50.918;7.092;2023-12-04T02:34:30;8.60;;;5.70;;
81841;SDS011;71284;50.918;7.092;2023-12-04T02:36:57;11.90;;;5.97;;
81841;SDS011;71284;50.918;7.092;2023-12-04T02:39:23;10.98;;;5.80;;
81841;SDS011;71284;50.918;7.092;2023-12-04T02:41:50;7.53;;;6.12;;
81841;SDS011;71284;50.918;7.092;2023-12-04T02:44:17;8.18;;;5.90;;
81841;SDS011;71284;50.918;7.092;2023-12-04T02:46:43;10.25;;;6.12;;
81841;SDS011;71284;50.918;7.092;2023-12-04T02:49:10;8.10;;;6.15;;
81841;SDS011;71284;50.918;7.092;2023-12-04T02:51:37;10.73;;;6.40;;
81841;SDS011;71284;50.918;7.092;2023-12-04T02:54:03;10.15;;;5.90;;
81841;SDS011;71284;50.918;7.092;2023-12-04T02:56:30;8.13;;;5.40;;
81841;SDS011;71284;50.918;7.092;2023-12-04T02:58:56;9.75;;;5.93;;
81841;SDS011;71284;50.918;7.092;2023-12-04T03:01:23;14.35;;;7.00;;
81841;SDS011;71284;50.918;7.092;2023-12-04T03:03:49;11.20;;;5.90;;
81841;SDS011;71284;50.918;7.092;2023-12-04T03:06:16;12.27;;;5.93;;
81841;SDS011;71284;50.918;7.092;2023-12-04T03:08:42;16.90;;;6.20;;
81841;SDS011;71284;50.918;7.092;2023-12-04T03:11:09;10.63;;;6.07;;
81841;SDS011;71284;50.918;7.092;2023-12-04T03:13:36;9.60;;;5.78;;
81841;SDS011;71284;50.918;7.092;2023-12-04T03:16:02;8.85;;;6.28;;
81841;SDS011;71284;50.918;7.092;2023-12-04T03:18:29;10.50;;;6.85;;
81841;SDS011;71284;50.918;7.092;2023-12-04T03:20:56;10.07;;;5.57;;
81841;SDS011;71284;50.918;7.092;2023-12-04T03:23:22;9.63;;;5.85;;
81841;SDS011;71284;50.918;7.092;2023-12-04T03:25:49;11.60;;;6.05;;
81841;SDS011;71284;50.918;7.092;2023-12-04T03:28:15;7.97;;;5.93;;
81841;SDS011;71284;50.918;7.092;2023-12-04T03:30:42;9.30;;;5.80;;
81841;SDS011;71284;50.918;7.092;2023-12-04T03:33:09;11.10;;;6.90;;
81841;SDS011;71284;50.918;7.092;2023-12-04T03:35:36;8.75;;;5.12;;
81841;SDS011;71284;50.918;7.092;2023-12-04T03:38:02;9.38;;;5.45;;
81841;SDS011;71284;50.918;7.092;2023-12-04T03:40:29;16.52;;;7.22;;
81841;SDS011;71284;50.918;7.092;2023-12-04T03:42:56;9.43;;;5.95;;
81841;SDS011;71284;50.918;7.092;2023-12-04T03:45:22;7.97;;;5.53;;
81841;SDS011;71284;50.918;7.092;2023-12-04T03:47:49;7.18;;;5.30;;
81841;SDS011;71284;50.918;7.092;2023-12-04T03:50:15;8.63;;;5.85;;
81841;SDS011;71284;50.918;7.092;2023-12-04T03:52:42;11.20;;;6.20;;
81841;SDS011;71284;50.918;7.092;2023-12-04T03:55:09;12.23;;;6.80;;
81841;SDS011;71284;50.918;7.092;2023-12-04T03:57:35;10.73;;;7.05;;
81841;SDS011;71284;50.918;7.092;2023-12-04T04:00:02;7.93;;;5.45;;
81841;SDS011;71284;50.918;7.092;2023-12-04T04:02:29;10.48;;;5.80;;
81841;SDS011;71284;50.918;7.092;2023-12-04T04:04:55;10.40;;;6.00;;
81841;SDS011;71284;50.918;7.092;2023-12-04T04:07:22;9.52;;;5.97;;
81841;SDS011;71284;50.918;7.092;2023-12-04T04:09:49;11.75;;;6.05;;
81841;SDS011;71284;50.918;7.092;2023-12-04T04:12:15;9.43;;;6.18;;
81841;SDS011;71284;50.918;7.092;2023-12-04T04:14:42;12.23;;;7.03;;
81841;SDS011;71284;50.918;7.092;2023-12-04T04:17:08;8.38;;;5.80;;
81841;SDS011;71284;50.918;7.092;2023-12-04T04:19:35;10.63;;;6.72;;
81841;SDS011;71284;50.918;7.092;2023-12-04T04:22:01;8.63;;;5.82;;
81841;SDS011;71284;50.918;7.092;2023-12-04T04:24:28;10.93;;;6.72;;
81841;SDS011;71284;50.918;7.092;2023-12-04T04:26:55;13.00;;;6.93;;
81841;SDS011;71284;50.918;7.092;2023-12-04T04:29:21;15.10;;;7.10;;
81841;SDS011;71284;50.918;7.092;2023-12-04T04:31:48;11.93;;;6.95;;
81841;SDS011;71284;50.918;7.092;2023-12-04T04:34:14;9.30;;;7.12;;
81841;SDS011;71284;50.918;7.092;2023-12-04T04:36:42;15.38;;;7.15;;
81841;SDS011;71284;50.918;7.092;2023-12-04T04:39:08;12.48;;;6.70;;
81841;SDS011;71284;50.918;7.092;2023-12-04T04:41:35;9.70;;;6.57;;
81841;SDS011;71284;50.918;7.092;2023-12-04T04:44:01;9.70;;;6.68;;
81841;SDS011;71284;50.918;7.092;2023-12-04T04:46:28;9.63;;;6.97;;
81841;SDS011;71284;50.918;7.092;2023-12-04T04:48:55;12.27;;;6.12;;
81841;SDS011;71284;50.918;7.092;2023-12-04T04:51:21;12.43;;;6.97;;
81841;SDS011;71284;50.918;7.092;2023-12-04T04:53:48;7.18;;;5.55;;
81841;SDS011;71284;50.918;7.092;2023-12-04T04:56:14;10.20;;;5.70;;
81841;SDS011;71284;50.918;7.092;2023-12-04T04:58:41;10.30;;;6.55;;
81841;SDS011;71284;50.918;7.092;2023-12-04T05:01:08;14.75;;;7.78;;
81841;SDS011;71284;50.918;7.092;2023-12-04T05:03:34;17.05;;;6.87;;
81841;SDS011;71284;50.918;7.092;2023-12-04T05:06:01;13.05;;;6.70;;
81841;SDS011;71284;50.918;7.092;2023-12-04T05:08:27;11.00;;;6.65;;
81841;SDS011;71284;50.918;7.092;2023-12-04T05:10:54;14.40;;;7.70;;
81841;SDS011;71284;50.918;7.092;2023-12-04T05:13:20;10.77;;;7.47;;
81841;SDS011;71284;50.918;7.092;2023-12-04T05:15:47;15.05;;;7.22;;
81841;SDS011;71284;50.918;7.092;2023-12-04T05:18:14;11.43;;;7.15;;
81841;SDS011;71284;50.918;7.092;2023-12-04T05:20:40;12.98;;;8.38;;
81841;SDS011;71284;50.918;7.092;2023-12-04T05:23:07;9.43;;;5.95;;
81841;SDS011;71284;50.918;7.092;2023-12-04T05:25:33;11.73;;;7.10;;
81841;SDS011;71284;50.918;7.092;2023-12-04T05:28:00;11.40;;;7.43;;
81841;SDS011;71284;50.918;7.092;2023-12-04T05:30:27;13.50;;;8.40;;
81841;SDS011;71284;50.918;7.092;2023-12-04T05:32:53;13.23;;;6.93;;
81841;SDS011;71284;50.918;7.092;2023-12-04T05:35:20;13.45;;;6.90;;
81841;SDS011;71284;50.918;7.092;2023-12-04T05:37:46;23.52;;;9.13;;
81841;SDS011;71284;50.918;7.092;2023-12-04T05:40:13;11.07;;;7.45;;
81841;SDS011;71284;50.918;7.092;2023-12-04T05:42:40;10.55;;;7.15;;
81841;SDS011;71284;50.918;7.092;2023-12-04T05:45:06;13.27;;;7.70;;
81841;SDS011;71284;50.918;7.092;2023-12-04T05:47:33;12.73;;;8.25;;
81841;SDS011;71284;50.918;7.092;2023-12-04T05:49:59;17.62;;;8.70;;
81841;SDS011;71284;50.918;7.092;2023-12-04T05:52:26;13.05;;;8.52;;
81841;SDS011;71284;50.918;7.092;2023-12-04T05:54:53;17.50;;;8.15;;
81841;SDS011;71284;50.918;7.092;2023-12-04T05:57:19;15.70;;;8.05;;
81841;SDS011;71284;50.918;7.092;2023-12-04T05:59:46;15.65;;;8.80;;
81841;SDS011;71284;50.918;7.092;2023-12-04T06:02:13;15.35;;;8.27;;
81841;SDS011;71284;50.918;7.092;2023-12-04T06:04:40;14.80;;;8.55;;
81841;SDS011;71284;50.918;7.092;2023-12-04T06:07:06;11.68;;;7.47;;
81841;SDS011;71284;50.918;7.092;2023-12-04T06:09:33;11.52;;;8.35;;
81841;SDS011;71284;50.918;7.092;2023-12-04T06:11:59;17.87;;;8.45;;
81841;SDS011;71284;50.918;7.092;2023-12-04T06:14:26;12.13;;;8.35;;
81841;SDS011;71284;50.918;7.092;2023-12-04T06:16:53;16.90;;;7.80;;
81841;SDS011;71284;50.918;7.092;2023-12-04T06:19:19;11.20;;;6.90;;
81841;SDS011;71284;50.918;7.092;2023-12-04T06:21:46;13.18;;;7.30;;
81841;SDS011;71284;50.918;7.092;2023-12-04T06:24:12;15.93;;;7.65;;
81841;SDS011;71284;50.918;7.092;2023-12-04T06:26:41;19.00;;;8.30;;
81841;SDS011;71284;50.918;7.092;2023-12-04T06:29:06;15.52;;;8.75;;
81841;SDS011;71284;50.918;7.092;2023-12-04T06:31:33;12.82;;;8.80;;
81841;SDS011;71284;50.918;7.092;2023-12-04T06:33:59;8.85;;;7.25;;
81841;SDS011;71284;50.918;7.092;2023-12-04T06:36:26;11.90;;;7.03;;
81841;SDS011;71284;50.918;7.092;2023-12-04T06:38:52;12.73;;;7.50;;
81841;SDS011;71284;50.918;7.092;2023-12-04T06:41:19;10.68;;;6.90;;
81841;SDS011;71284;50.918;7.092;2023-12-04T06:43:46;12.05;;;6.45;;
81841;SDS011;71284;50.918;7.092;2023-12-04T06:46:13;13.77;;;8.25;;
81841;SDS011;71284;50.918;7.092;2023-12-04T06:48:39;10.43;;;6.70;;
81841;SDS011;71284;50.918;7.092;2023-12-04T06:51:06;16.02;;;8.68;;
81841;SDS011;71284;50.918;7.092;2023-12-04T06:53:33;11.88;;;7.10;;
81841;SDS011;71284;50.918;7.092;2023-12-04T06:55:59;13.02;;;8.15;;
81841;SDS011;71284;50.918;7.092;2023-12-04T06:58:26;12.50;;;7.20;;
81841;SDS011;71284;50.918;7.092;2023-12-04T07:00:52;10.05;;;6.68;;
81841;SDS011;71284;50.918;7.092;2023-12-04T07:03:19;12.68;;;7.60;;
81841;SDS011;71284;50.918;7.092;2023-12-04T07:05:45;13.38;;;8.38;;
81841;SDS011;71284;50.918;7.092;2023-12-04T07:08:12;15.60;;;7.60;;
81841;SDS011;71284;50.918;7.092;2023-12-04T07:10:39;10.65;;;7.10;;
81841;SDS011;71284;50.918;7.092;2023-12-04T07:13:05;10.35;;;6.70;;
81841;SDS011;71284;50.918;7.092;2023-12-04T07:15:32;10.82;;;6.35;;
81841;SDS011;71284;50.918;7.092;2023-12-04T07:17:58;9.23;;;6.12;;
81841;SDS011;71284;50.918;7.092;2023-12-04T07:20:25;10.63;;;6.00;;
81841;SDS011;71284;50.918;7.092;2023-12-04T07:22:52;11.25;;;6.53;;
81841;SDS011;71284;50.918;7.092;2023-12-04T07:25:18;8.20;;;6.03;;
81841;SDS011;71284;50.918;7.092;2023-12-04T07:27:45;6.55;;;5.82;;
81841;SDS011;71284;50.918;7.092;2023-12-04T07:30:12;11.68;;;6.70;;
81841;SDS011;71284;50.918;7.092;2023-12-04T07:32:38;9.98;;;5.78;;
81841;SDS011;71284;50.918;7.092;2023-12-04T07:35:05;9.88;;;6.25;;
81841;SDS011;71284;50.918;7.092;2023-12-04T07:37:32;7.00;;;5.00;;
81841;SDS011;71284;50.918;7.092;2023-12-04T07:39:59;6.72;;;5.70;;
81841;SDS011;71284;50.918;7.092;2023-12-04T07:42:25;7.40;;;5.32;;
81841;SDS011;71284;50.918;7.092;2023-12-04T07:44:52;9.63;;;7.20;;
81841;SDS011;71284;50.918;7.092;2023-12-04T07:47:19;7.22;;;5.20;;
81841;SDS011;71284;50.918;7.092;2023-12-04T07:49:45;10.75;;;6.47;;
81841;SDS011;71284;50.918;7.092;2023-12-04T07:52:12;10.52;;;6.47;;
81841;SDS011;71284;50.918;7.092;2023-12-04T07:54:39;7.70;;;4.68;;
81841;SDS011;71284;50.918;7.092;2023-12-04T07:57:05;9.48;;;5.95;;
81841;SDS011;71284;50.918;7.092;2023-12-04T07:59:32;9.07;;;5.60;;
81841;SDS011;71284;50.918;7.092;2023-12-04T08:01:59;10.23;;;6.30;;
81841;SDS011;71284;50.918;7.092;2023-12-04T08:04:25;7.37;;;5.43;;
81841;SDS011;71284;50.918;7.092;2023-12-04T08:06:52;14.30;;;5.30;;
81841;SDS011;71284;50.918;7.092;2023-12-04T08:09:18;7.90;;;5.60;;
81841;SDS011;71284;50.918;7.092;2023-12-04T08:11:45;10.50;;;5.22;;
81841;SDS011;71284;50.918;7.092;2023-12-04T08:14:12;7.32;;;4.70;;
81841;SDS011;71284;50.918;7.092;2023-12-04T08:16:38;9.00;;;5.00;;
81841;SDS011;71284;50.918;7.092;2023-12-04T08:19:05;8.55;;;5.65;;
81841;SDS011;71284;50.918;7.092;2023-12-04T08:21:31;9.35;;;5.47;;
81841;SDS011;71284;50.918;7.092;2023-12-04T08:23:58;7.22;;;5.12;;
81841;SDS011;71284;50.918;7.092;2023-12-04T08:26:25;6.60;;;4.55;;
81841;SDS011;71284;50.918;7.092;2023-12-04T08:28:51;7.15;;;4.95;;
81841;SDS011;71284;50.918;7.092;2023-12-04T08:31:18;7.03;;;5.68;;
81841;SDS011;71284;50.918;7.092;2023-12-04T08:33:44;7.53;;;6.22;;
81841;SDS011;71284;50.918;7.092;2023-12-04T08:36:11;5.18;;;4.62;;
81841;SDS011;71284;50.918;7.092;2023-12-04T08:38:37;8.50;;;5.30;;
81841;SDS011;71284;50.918;7.092;2023-12-04T08:41:04;7.15;;;5.95;;
81841;SDS011;71284;50.918;7.092;2023-12-04T08:43:31;9.60;;;4.72;;
81841;SDS011;71284;50.918;7.092;2023-12-04T08:45:57;5.82;;;4.80;;
81841;SDS011;71284;50.918;7.092;2023-12-04T08:48:24;8.15;;;5.20;;
81841;SDS011;71284;50.918;7.092;2023-12-04T08:50:50;7.43;;;4.50;;
81841;SDS011;71284;50.918;7.092;2023-12-04T08:53:17;8.35;;;4.45;;
81841;SDS011;71284;50.918;7.092;2023-12-04T08:55:44;12.07;;;5.95;;
81841;SDS011;71284;50.918;7.092;2023-12-04T08:58:10;11.60;;;5.50;;
81841;SDS011;71284;50.918;7.092;2023-12-04T09:00:37;11.90;;;6.28;;
81841;SDS011;71284;50.918;7.092;2023-12-04T09:03:03;6.97;;;4.50;;
81841;SDS011;71284;50.918;7.092;2023-12-04T09:05:30;8.57;;;5.50;;
81841;SDS011;71284;50.918;7.092;2023-12-04T09:07:57;10.55;;;5.80;;
81841;SDS011;71284;50.918;7.092;2023-12-04T09:10:23;8.43;;;5.20;;
81841;SDS011;71284;50.918;7.092;2023-12-04T09:12:50;4.97;;;4.37;;
81841;SDS011;71284;50.918;7.092;2023-12-04T09:15:16;6.57;;;4.95;;
81841;SDS011;71284;50.918;7.092;2023-12-04T09:17:43;7.30;;;5.55;;
81841;SDS011;71284;50.918;7.092;2023-12-04T09:20:10;9.20;;;5.90;;
81841;SDS011;71284;50.918;7.092;2023-12-04T09:22:36;12.05;;;6.22;;
81841;SDS011;71284;50.918;7.092;2023-12-04T09:25:03;6.82;;;4.80;;
81841;SDS011;71284;50.918;7.092;2023-12-04T09:27:30;7.32;;;5.53;;
81841;SDS011;71284;50.918;7.092;2023-12-04T09:29:56;6.55;;;4.57;;
81841;SDS011;71284;50.918;7.092;2023-12-04T09:32:23;6.40;;;4.40;;
81841;SDS011;71284;50.918;7.092;2023-12-04T09:34:49;5.85;;;4.37;;
81841;SDS011;71284;50.918;7.092;2023-12-04T09:37:16;8.98;;;4.70;;
81841;SDS011;71284;50.918;7.092;2023-12-04T09:39:43;4.43;;;4.12;;
81841;SDS011;71284;50.918;7.092;2023-12-04T09:42:09;5.55;;;4.53;;
81841;SDS011;71284;50.918;7.092;2023-12-04T09:44:36;19.17;;;5.05;;
81841;SDS011;71284;50.918;7.092;2023-12-04T09:47:02;6.75;;;5.10;;
81841;SDS011;71284;50.918;7.092;2023-12-04T09:49:29;5.97;;;4.78;;
81841;SDS011;71284;50.918;7.092;2023-12-04T09:51:58;12.40;;;4.18;;
81841;SDS011;71284;50.918;7.092;2023-12-04T09:54:25;6.20;;;4.70;;
81841;SDS011;71284;50.918;7.092;2023-12-04T09:56:52;5.78;;;4.85;;
81841;SDS011;71284;50.918;7.092;2023-12-04T09:59:18;5.50;;;4.55;;
81841;SDS011;71284;50.918;7.092;2023-12-04T10:01:45;7.20;;;4.80;;
81841;SDS011;71284;50.918;7.092;2023-12-04T10:04:11;8.65;;;5.10;;
81841;SDS011;71284;50.918;7.092;2023-12-04T10:06:38;6.80;;;4.90;;
81841;SDS011;71284;50.918;7.092;2023-12-04T10:09:04;7.70;;;5.10;;
81841;SDS011;71284;50.918;7.092;2023-12-04T10:11:31;8.98;;;5.00;;
81841;SDS011;71284;50.918;7.092;2023-12-04T10:13:58;6.40;;;4.20;;
81841;SDS011;71284;50.918;7.092;2023-12-04T10:16:34;8.63;;;5.20;;
81841;SDS011;71284;50.918;7.092;2023-12-04T10:21:35;8.40;;;4.97;;
81841;SDS011;71284;50.918;7.092;2023-12-04T10:24:02;7.20;;;4.12;;
81841;SDS011;71284;50.918;7.092;2023-12-04T10:26:28;6.65;;;4.55;;
81841;SDS011;71284;50.918;7.092;2023-12-04T10:29:02;6.18;;;4.37;;
81841;SDS011;71284;50.918;7.092;2023-12-04T10:31:26;8.65;;;5.32;;
81841;SDS011;71284;50.918;7.092;2023-12-04T10:33:53;5.03;;;4.12;;
81841;SDS011;71284;50.918;7.092;2023-12-04T10:36:19;10.15;;;6.07;;
81841;SDS011;71284;50.918;7.092;2023-12-04T10:38:46;6.78;;;4.35;;
81841;SDS011;71284;50.918;7.092;2023-12-04T10:41:13;8.95;;;4.40;;
81841;SDS011;71284;50.918;7.092;2023-12-04T10:43:49;6.50;;;5.20;;
81841;SDS011;71284;50.918;7.092;2023-12-04T10:46:16;5.70;;;5.10;;
81841;SDS011;71284;50.918;7.092;2023-12-04T10:48:44;7.68;;;5.05;;
81841;SDS011;71284;50.918;7.092;2023-12-04T10:51:12;8.05;;;4.45;;
81841;SDS011;71284;50.918;7.092;2023-12-04T10:53:38;6.65;;;5.15;;
81841;SDS011;71284;50.918;7.092;2023-12-04T10:56:05;7.62;;;5.07;;
81841;SDS011;71284;50.918;7.092;2023-12-04T10:58:32;9.20;;;4.65;;
81841;SDS011;71284;50.918;7.092;2023-12-04T11:00:59;6.85;;;6.12;;
81841;SDS011;71284;50.918;7.092;2023-12-04T11:03:32;7.03;;;5.05;;
81841;SDS011;71284;50.918;7.092;2023-12-04T11:05:59;8.93;;;5.10;;
81841;SDS011;71284;50.918;7.092;2023-12-04T11:08:26;9.05;;;5.05;;
81841;SDS011;71284;50.918;7.092;2023-12-04T11:10:56;9.82;;;5.70;;
81841;SDS011;71284;50.918;7.092;2023-12-04T11:13:25;9.15;;;5.05;;
81841;SDS011;71284;50.918;7.092;2023-12-04T11:15:50;6.70;;;4.87;;
81841;SDS011;71284;50.918;7.092;2023-12-04T11:18:16;8.77;;;5.97;;
81841;SDS011;71284;50.918;7.092;2023-12-04T11:20:46;8.35;;;6.40;;
81841;SDS011;71284;50.918;7.092;2023-12-04T11:23:10;8.32;;;5.65;;
81841;SDS011;71284;50.918;7.092;2023-12-04T11:25:36;5.62;;;4.90;;
81841;SDS011;71284;50.918;7.092;2023-12-04T11:28:03;8.00;;;5.53;;
81841;SDS011;71284;50.918;7.092;2023-12-04T11:30:30;11.40;;;5.97;;
81841;SDS011;71284;50.918;7.092;2023-12-04T11:32:56;10.63;;;6.53;;
81841;SDS011;71284;50.918;7.092;2023-12-04T11:35:25;6.90;;;4.47;;
81841;SDS011;71284;50.918;7.092;2023-12-04T11:37:50;9.18;;;5.28;;
81841;SDS011;71284;50.918;7.092;2023-12-04T11:40:16;6.70;;;5.35;;
81841;SDS011;71284;50.918;7.092;2023-12-04T11:42:43;7.53;;;5.72;;
81841;SDS011;71284;50.918;7.092;2023-12-04T11:45:09;8.75;;;5.97;;
81841;SDS011;71284;50.918;7.092;2023-12-04T11:47:48;8.35;;;4.78;;
81841;SDS011;71284;50.918;7.092;2023-12-04T11:50:11;8.55;;;6.05;;
81841;SDS011;71284;50.918;7.092;2023-12-04T11:52:38;6.35;;;4.37;;
81841;SDS011;71284;50.918;7.092;2023-12-04T11:55:04;9.75;;;5.78;;
81841;SDS011;71284;50.918;7.092;2023-12-04T11:57:33;10.98;;;6.43;;
81841;SDS011;71284;50.918;7.092;2023-12-04T12:00:08;10.68;;;6.35;;
81841;SDS011;71284;50.918;7.092;2023-12-04T12:02:41;12.02;;;5.80;;
81841;SDS011;71284;50.918;7.092;2023-12-04T12:05:07;4.97;;;4.28;;
81841;SDS011;71284;50.918;7.092;2023-12-04T12:07:34;8.57;;;5.93;;
81841;SDS011;71284;50.918;7.092;2023-12-04T12:10:00;10.63;;;5.75;;
81841;SDS011;71284;50.918;7.092;2023-12-04T12:12:27;8.68;;;5.40;;
81841;SDS011;71284;50.918;7.092;2023-12-04T12:14:53;15.15;;;6.70;;
81841;SDS011;71284;50.918;7.092;2023-12-04T12:17:20;10.48;;;6.35;;
81841;SDS011;71284;50.918;7.092;2023-12-04T12:19:46;6.97;;;5.70;;
81841;SDS011;71284;50.918;7.092;2023-12-04T12:22:13;8.43;;;6.25;;
81841;SDS011;71284;50.918;7.092;2023-12-04T12:24:40;10.02;;;6.40;;
81841;SDS011;71284;50.918;7.092;2023-12-04T12:27:06;12.50;;;6.30;;
81841;SDS011;71284;50.918;7.092;2023-12-04T12:29:33;7.95;;;5.30;;
81841;SDS011;71284;50.918;7.092;2023-12-04T12:31:59;9.27;;;6.50;;
81841;SDS011;71284;50.918;7.092;2023-12-04T12:34:26;7.87;;;5.03;;
81841;SDS011;71284;50.918;7.092;2023-12-04T12:36:53;10.18;;;6.60;;
81841;SDS011;71284;50.918;7.092;2023-12-04T12:39:19;8.50;;;5.65;;
81841;SDS011;71284;50.918;7.092;2023-12-04T12:41:47;14.05;;;6.18;;
81841;SDS011;71284;50.918;7.092;2023-12-04T12:44:13;9.65;;;5.07;;
81841;SDS011;71284;50.918;7.092;2023-12-04T12:46:40;10.73;;;5.60;;
81841;SDS011;71284;50.918;7.092;2023-12-04T12:49:06;6.43;;;4.25;;
81841;SDS011;71284;50.918;7.092;2023-12-04T12:51:33;7.78;;;5.15;;
81841;SDS011;71284;50.918;7.092;2023-12-04T12:54:00;6.60;;;5.75;;
81841;SDS011;71284;50.918;7.092;2023-12-04T12:56:26;9.50;;;5.97;;
81841;SDS011;71284;50.918;7.092;2023-12-04T12:58:53;10.90;;;6.82;;
81841;SDS011;71284;50.918;7.092;2023-12-04T13:01:22;11.32;;;5.65;;
81841;SDS011;71284;50.918;7.092;2023-12-04T13:03:46;7.50;;;5.45;;
81841;SDS011;71284;50.918;7.092;2023-12-04T13:06:13;8.27;;;5.05;;
81841;SDS011;71284;50.918;7.092;2023-12-04T13:08:39;21.35;;;6.65;;
81841;SDS011;71284;50.918;7.092;2023-12-04T13:11:06;9.60;;;6.72;;
81841;SDS011;71284;50.918;7.092;2023-12-04T13:13:32;11.25;;;7.22;;
81841;SDS011;71284;50.918;7.092;2023-12-04T13:15:59;7.60;;;5.95;;
81841;SDS011;71284;50.918;7.092;2023-12-04T13:18:26;10.60;;;6.00;;
81841;SDS011;71284;50.918;7.092;2023-12-04T13:20:52;7.10;;;5.62;;
81841;SDS011;71284;50.918;7.092;2023-12-04T13:23:19;6.55;;;5.05;;
81841;SDS011;71284;50.918;7.092;2023-12-04T13:25:45;12.60;;;6.50;;
81841;SDS011;71284;50.918;7.092;2023-12-04T13:28:12;9.20;;;5.72;;
81841;SDS011;71284;50.918;7.092;2023-12-04T13:30:39;11.18;;;5.80;;
81841;SDS011;71284;50.918;7.092;2023-12-04T13:33:05;13.60;;;7.18;;
81841;SDS011;71284;50.918;7.092;2023-12-04T13:35:32;9.98;;;5.65;;
81841;SDS011;71284;50.918;7.092;2023-12-04T13:37:58;8.82;;;4.80;;
81841;SDS011;71284;50.918;7.092;2023-12-04T13:40:25;8.82;;;5.47;;
81841;SDS011;71284;50.918;7.092;2023-12-04T13:42:52;7.87;;;5.65;;
81841;SDS011;71284;50.918;7.092;2023-12-04T13:45:24;8.20;;;5.62;;
81841;SDS011;71284;50.918;7.092;2023-12-04T13:47:50;5.82;;;5.22;;
81841;SDS011;71284;50.918;7.092;2023-12-04T13:50:17;7.37;;;4.78;;
81841;SDS011;71284;50.918;7.092;2023-12-04T13:52:43;8.40;;;4.10;;
81841;SDS011;71284;50.918;7.092;2023-12-04T13:55:10;7.70;;;4.30;;
81841;SDS011;71284;50.918;7.092;2023-12-04T13:57:46;5.87;;;4.47;;
81841;SDS011;71284;50.918;7.092;2023-12-04T14:00:18;7.75;;;4.37;;
81841;SDS011;71284;50.918;7.092;2023-12-04T14:02:45;8.38;;;4.68;;
81841;SDS011;71284;50.918;7.092;2023-12-04T14:05:11;6.53;;;3.67;;
81841;SDS011;71284;50.918;7.092;2023-12-04T14:07:40;10.20;;;5.82;;
81841;SDS011;71284;50.918;7.092;2023-12-04T14:10:06;5.25;;;3.40;;
81841;SDS011;71284;50.918;7.092;2023-12-04T14:12:33;4.32;;;3.87;;
81841;SDS011;71284;50.918;7.092;2023-12-04T14:15:00;4.22;;;3.87;;
81841;SDS011;71284;50.918;7.092;2023-12-04T14:17:26;7.10;;;3.90;;
81841;SDS011;71284;50.918;7.092;2023-12-04T14:19:53;4.32;;;3.85;;
81841;SDS011;71284;50.918;7.092;2023-12-04T14:22:19;4.97;;;3.58;;
81841;SDS011;71284;50.918;7.092;2023-12-04T14:24:46;4.72;;;3.67;;
81841;SDS011;71284;50.918;7.092;2023-12-04T14:27:13;7.65;;;3.92;;
81841;SDS011;71284;50.918;7.092;2023-12-04T14:29:39;4.18;;;3.75;;
81841;SDS011;71284;50.918;7.092;2023-12-04T14:32:06;5.50;;;3.37;;
81841;SDS011;71284;50.918;7.092;2023-12-04T14:34:33;3.37;;;3.17;;
81841;SDS011;71284;50.918;7.092;2023-12-04T14:37:00;5.00;;;3.85;;
81841;SDS011;71284;50.918;7.092;2023-12-04T14:39:26;6.30;;;3.62;;